sensor_id;sensor_type;location;lat;lon;timestamp;P1;durP1;ratioP1;P2;durP2;ratioP2
11247;SDS011;5681;53.316;13.950;2023-06-10T00:02:08;10.63;;;4.10;;
11247;SDS011;5681;53.316;13.950;2023-06-10T00:04:35;13.75;;;3.50;;
11247;SDS011;5681;53.316;13.950;2023-06-10T00:07:02;10.73;;;3.78;;
11247;SDS011;5681;53.316;13.950;2023-06-10T00:09:33;9.73;;;3.63;;
11247;SDS011;5681;53.316;13.950;2023-06-10T00:12:01;11.07;;;4.20;;
11247;SDS011;5681;53.316;13.950;2023-06-10T00:14:27;12.15;;;4.13;;
11247;SDS011;5681;53.316;13.950;2023-06-10T00:16:53;8.65;;;3.63;;
11247;SDS011;5681;53.316;13.950;2023-06-10T00:19:20;12.50;;;3.70;;
11247;SDS011;5681;53.316;13.950;2023-06-10T00:21:50;14.25;;;4.18;;
11247;SDS011;5681;53.316;13.950;2023-06-10T00:24:17;9.40;;;4.03;;
11247;SDS011;5681;53.316;13.950;2023-06-10T00:26:44;14.60;;;4.07;;
11247;SDS011;5681;53.316;13.950;2023-06-10T00:29:12;11.70;;;3.40;;
11247;SDS011;5681;53.316;13.950;2023-06-10T00:31:39;8.63;;;3.47;;
11247;SDS011;5681;53.316;13.950;2023-06-10T00:34:06;8.85;;;3.47;;
11247;SDS011;5681;53.316;13.950;2023-06-10T00:36:32;9.20;;;3.72;;
11247;SDS011;5681;53.316;13.950;2023-06-10T00:38:58;8.20;;;3.38;;
11247;SDS011;5681;53.316;13.950;2023-06-10T00:41:25;10.52;;;3.28;;
11247;SDS011;5681;53.316;13.950;2023-06-10T00:43:52;10.65;;;3.40;;
11247;SDS011;5681;53.316;13.950;2023-06-10T00:46:19;8.40;;;3.33;;
11247;SDS011;5681;53.316;13.950;2023-06-10T00:48:47;12.30;;;4.15;;
11247;SDS011;5681;53.316;13.950;2023-06-10T00:51:13;13.52;;;4.00;;
11247;SDS011;5681;53.316;13.950;2023-06-10T00:53:40;9.43;;;3.50;;
11247;SDS011;5681;53.316;13.950;2023-06-10T00:56:07;8.55;;;3.60;;
11247;SDS011;5681;53.316;13.950;2023-06-10T00:58:33;11.43;;;4.00;;
11247;SDS011;5681;53.316;13.950;2023-06-10T01:01:00;10.02;;;3.40;;
11247;SDS011;5681;53.316;13.950;2023-06-10T01:03:30;11.13;;;3.75;;
11247;SDS011;5681;53.316;13.950;2023-06-10T01:05:57;13.00;;;3.60;;
11247;SDS011;5681;53.316;13.950;2023-06-10T01:08:38;10.35;;;3.65;;
11247;SDS011;5681;53.316;13.950;2023-06-10T01:11:08;10.55;;;3.50;;
11247;SDS011;5681;53.316;13.950;2023-06-10T01:13:40;13.98;;;3.88;;
11247;SDS011;5681;53.316;13.950;2023-06-10T01:16:07;9.90;;;3.97;;
11247;SDS011;5681;53.316;13.950;2023-06-10T01:18:36;8.52;;;3.80;;
11247;SDS011;5681;53.316;13.950;2023-06-10T01:21:03;10.80;;;3.38;;
11247;SDS011;5681;53.316;13.950;2023-06-10T01:23:31;10.48;;;3.92;;
11247;SDS011;5681;53.316;13.950;2023-06-10T01:25:59;11.38;;;3.70;;
11247;SDS011;5681;53.316;13.950;2023-06-10T01:28:29;8.57;;;3.58;;
11247;SDS011;5681;53.316;13.950;2023-06-10T01:30:59;10.43;;;3.80;;
11247;SDS011;5681;53.316;13.950;2023-06-10T01:33:35;13.25;;;4.43;;
11247;SDS011;5681;53.316;13.950;2023-06-10T01:36:02;9.27;;;3.38;;
11247;SDS011;5681;53.316;13.950;2023-06-10T01:38:30;12.38;;;3.50;;
11247;SDS011;5681;53.316;13.950;2023-06-10T01:40:59;8.95;;;3.55;;
11247;SDS011;5681;53.316;13.950;2023-06-10T01:43:26;9.30;;;3.58;;
11247;SDS011;5681;53.316;13.950;2023-06-10T01:45:52;8.15;;;3.78;;
11247;SDS011;5681;53.316;13.950;2023-06-10T01:48:19;8.07;;;3.70;;
11247;SDS011;5681;53.316;13.950;2023-06-10T01:50:45;10.73;;;3.75;;
11247;SDS011;5681;53.316;13.950;2023-06-10T01:53:11;12.23;;;4.22;;
11247;SDS011;5681;53.316;13.950;2023-06-10T01:55:39;11.10;;;4.05;;
11247;SDS011;5681;53.316;13.950;2023-06-10T01:58:05;9.35;;;3.80;;
11247;SDS011;5681;53.316;13.950;2023-06-10T02:00:32;8.88;;;4.00;;
11247;SDS011;5681;53.316;13.950;2023-06-10T02:02:58;10.80;;;4.45;;
11247;SDS011;5681;53.316;13.950;2023-06-10T02:05:24;8.07;;;3.58;;
11247;SDS011;5681;53.316;13.950;2023-06-10T02:07:51;9.15;;;3.80;;
11247;SDS011;5681;53.316;13.950;2023-06-10T02:10:17;7.43;;;3.53;;
11247;SDS011;5681;53.316;13.950;2023-06-10T02:12:45;10.48;;;3.42;;
11247;SDS011;5681;53.316;13.950;2023-06-10T02:15:11;11.00;;;3.50;;
11247;SDS011;5681;53.316;13.950;2023-06-10T02:17:38;8.98;;;3.72;;
11247;SDS011;5681;53.316;13.950;2023-06-10T02:20:05;8.90;;;3.72;;
11247;SDS011;5681;53.316;13.950;2023-06-10T02:22:32;9.68;;;3.85;;
11247;SDS011;5681;53.316;13.950;2023-06-10T02:24:59;11.20;;;3.28;;
11247;SDS011;5681;53.316;13.950;2023-06-10T02:27:26;9.00;;;3.45;;
11247;SDS011;5681;53.316;13.950;2023-06-10T02:29:53;10.13;;;3.40;;
11247;SDS011;5681;53.316;13.950;2023-06-10T02:32:19;9.88;;;3.60;;
11247;SDS011;5681;53.316;13.950;2023-06-10T02:34:46;8.18;;;3.30;;
11247;SDS011;5681;53.316;13.950;2023-06-10T02:37:12;13.60;;;3.63;;
11247;SDS011;5681;53.316;13.950;2023-06-10T02:39:39;9.23;;;3.63;;
11247;SDS011;5681;53.316;13.950;2023-06-10T02:42:06;9.70;;;3.47;;
11247;SDS011;5681;53.316;13.950;2023-06-10T02:44:32;7.38;;;3.47;;
11247;SDS011;5681;53.316;13.950;2023-06-10T02:47:00;11.15;;;3.50;;
11247;SDS011;5681;53.316;13.950;2023-06-10T02:49:26;8.50;;;3.22;;
11247;SDS011;5681;53.316;13.950;2023-06-10T02:51:53;8.85;;;3.15;;
11247;SDS011;5681;53.316;13.950;2023-06-10T02:54:20;11.75;;;3.97;;
11247;SDS011;5681;53.316;13.950;2023-06-10T02:56:47;7.38;;;3.50;;
11247;SDS011;5681;53.316;13.950;2023-06-10T02:59:13;10.30;;;4.00;;
11247;SDS011;5681;53.316;13.950;2023-06-10T03:01:40;9.27;;;3.67;;
11247;SDS011;5681;53.316;13.950;2023-06-10T03:04:08;11.50;;;4.20;;
11247;SDS011;5681;53.316;13.950;2023-06-10T03:06:34;10.68;;;3.90;;
11247;SDS011;5681;53.316;13.950;2023-06-10T03:09:01;8.50;;;3.53;;
11247;SDS011;5681;53.316;13.950;2023-06-10T03:11:29;7.97;;;3.53;;
11247;SDS011;5681;53.316;13.950;2023-06-10T03:13:55;11.00;;;3.55;;
11247;SDS011;5681;53.316;13.950;2023-06-10T03:16:22;13.77;;;3.80;;
11247;SDS011;5681;53.316;13.950;2023-06-10T03:18:50;11.68;;;3.33;;
11247;SDS011;5681;53.316;13.950;2023-06-10T03:21:18;8.95;;;3.40;;
11247;SDS011;5681;53.316;13.950;2023-06-10T03:23:44;12.23;;;3.40;;
11247;SDS011;5681;53.316;13.950;2023-06-10T03:26:11;11.80;;;4.03;;
11247;SDS011;5681;53.316;13.950;2023-06-10T03:28:39;8.82;;;3.35;;
11247;SDS011;5681;53.316;13.950;2023-06-10T03:31:06;7.82;;;3.55;;
11247;SDS011;5681;53.316;13.950;2023-06-10T03:33:32;7.80;;;3.38;;
11247;SDS011;5681;53.316;13.950;2023-06-10T03:35:58;8.07;;;3.15;;
11247;SDS011;5681;53.316;13.950;2023-06-10T03:38:29;6.30;;;3.10;;
11247;SDS011;5681;53.316;13.950;2023-06-10T03:40:55;7.32;;;3.50;;
11247;SDS011;5681;53.316;13.950;2023-06-10T03:43:21;10.85;;;4.10;;
11247;SDS011;5681;53.316;13.950;2023-06-10T03:45:48;9.20;;;3.72;;
11247;SDS011;5681;53.316;13.950;2023-06-10T03:48:14;9.15;;;3.90;;
11247;SDS011;5681;53.316;13.950;2023-06-10T03:50:41;8.75;;;3.45;;
11247;SDS011;5681;53.316;13.950;2023-06-10T03:53:08;7.07;;;3.53;;
11247;SDS011;5681;53.316;13.950;2023-06-10T03:55:35;9.52;;;3.55;;
11247;SDS011;5681;53.316;13.950;2023-06-10T03:58:02;9.10;;;3.40;;
11247;SDS011;5681;53.316;13.950;2023-06-10T04:00:28;11.68;;;4.32;;
11247;SDS011;5681;53.316;13.950;2023-06-10T04:02:55;9.23;;;3.83;;
11247;SDS011;5681;53.316;13.950;2023-06-10T04:05:23;10.57;;;3.55;;
11247;SDS011;5681;53.316;13.950;2023-06-10T04:07:49;10.60;;;3.53;;
11247;SDS011;5681;53.316;13.950;2023-06-10T04:10:15;9.43;;;3.88;;
11247;SDS011;5681;53.316;13.950;2023-06-10T04:12:43;11.30;;;3.63;;
11247;SDS011;5681;53.316;13.950;2023-06-10T04:15:10;9.38;;;3.70;;
11247;SDS011;5681;53.316;13.950;2023-06-10T04:17:38;9.63;;;4.05;;
11247;SDS011;5681;53.316;13.950;2023-06-10T04:20:05;10.60;;;3.65;;
11247;SDS011;5681;53.316;13.950;2023-06-10T04:22:32;10.15;;;3.70;;
11247;SDS011;5681;53.316;13.950;2023-06-10T04:24:59;11.90;;;3.88;;
11247;SDS011;5681;53.316;13.950;2023-06-10T04:27:25;9.70;;;3.78;;
11247;SDS011;5681;53.316;13.950;2023-06-10T04:29:53;10.00;;;4.25;;
11247;SDS011;5681;53.316;13.950;2023-06-10T04:32:19;9.00;;;3.30;;
11247;SDS011;5681;53.316;13.950;2023-06-10T04:34:46;9.27;;;3.72;;
11247;SDS011;5681;53.316;13.950;2023-06-10T04:37:12;10.70;;;3.97;;
11247;SDS011;5681;53.316;13.950;2023-06-10T04:39:39;9.40;;;3.67;;
11247;SDS011;5681;53.316;13.950;2023-06-10T04:42:06;9.98;;;3.92;;
11247;SDS011;5681;53.316;13.950;2023-06-10T04:44:32;11.80;;;3.90;;
11247;SDS011;5681;53.316;13.950;2023-06-10T04:47:00;12.82;;;4.55;;
11247;SDS011;5681;53.316;13.950;2023-06-10T04:49:27;12.38;;;4.25;;
11247;SDS011;5681;53.316;13.950;2023-06-10T04:51:53;10.27;;;4.13;;
11247;SDS011;5681;53.316;13.950;2023-06-10T04:54:20;10.25;;;4.07;;
11247;SDS011;5681;53.316;13.950;2023-06-10T04:56:46;11.25;;;4.20;;
11247;SDS011;5681;53.316;13.950;2023-06-10T04:59:12;10.52;;;3.90;;
11247;SDS011;5681;53.316;13.950;2023-06-10T05:01:39;13.60;;;4.20;;
11247;SDS011;5681;53.316;13.950;2023-06-10T05:04:07;10.20;;;4.10;;
11247;SDS011;5681;53.316;13.950;2023-06-10T05:06:33;8.98;;;4.50;;
11247;SDS011;5681;53.316;13.950;2023-06-10T05:09:01;11.10;;;3.72;;
11247;SDS011;5681;53.316;13.950;2023-06-10T05:11:27;9.05;;;4.07;;
11247;SDS011;5681;53.316;13.950;2023-06-10T05:13:54;13.90;;;4.22;;
11247;SDS011;5681;53.316;13.950;2023-06-10T05:16:20;11.07;;;4.57;;
11247;SDS011;5681;53.316;13.950;2023-06-10T05:18:47;11.18;;;4.05;;
11247;SDS011;5681;53.316;13.950;2023-06-10T05:21:14;7.75;;;3.80;;
11247;SDS011;5681;53.316;13.950;2023-06-10T05:23:41;8.52;;;3.47;;
11247;SDS011;5681;53.316;13.950;2023-06-10T05:26:07;15.18;;;4.28;;
11247;SDS011;5681;53.316;13.950;2023-06-10T05:28:33;10.27;;;3.90;;
11247;SDS011;5681;53.316;13.950;2023-06-10T05:31:00;12.07;;;4.38;;
11247;SDS011;5681;53.316;13.950;2023-06-10T05:33:26;10.45;;;4.28;;
11247;SDS011;5681;53.316;13.950;2023-06-10T05:35:53;9.98;;;4.32;;
11247;SDS011;5681;53.316;13.950;2023-06-10T05:38:20;7.95;;;4.68;;
11247;SDS011;5681;53.316;13.950;2023-06-10T05:40:47;10.18;;;4.35;;
11247;SDS011;5681;53.316;13.950;2023-06-10T05:43:13;9.90;;;4.40;;
11247;SDS011;5681;53.316;13.950;2023-06-10T05:45:41;10.43;;;4.30;;
11247;SDS011;5681;53.316;13.950;2023-06-10T05:48:08;19.58;;;4.30;;
11247;SDS011;5681;53.316;13.950;2023-06-10T05:50:34;9.30;;;4.93;;
11247;SDS011;5681;53.316;13.950;2023-06-10T05:53:03;12.85;;;4.63;;
11247;SDS011;5681;53.316;13.950;2023-06-10T05:55:33;10.77;;;4.00;;
11247;SDS011;5681;53.316;13.950;2023-06-10T05:57:59;11.27;;;4.35;;
11247;SDS011;5681;53.316;13.950;2023-06-10T06:00:26;9.73;;;3.92;;
11247;SDS011;5681;53.316;13.950;2023-06-10T06:02:52;7.63;;;4.05;;
11247;SDS011;5681;53.316;13.950;2023-06-10T06:05:19;12.68;;;4.35;;
11247;SDS011;5681;53.316;13.950;2023-06-10T06:07:45;8.20;;;3.90;;
11247;SDS011;5681;53.316;13.950;2023-06-10T06:10:12;10.48;;;4.18;;
11247;SDS011;5681;53.316;13.950;2023-06-10T06:12:39;10.07;;;4.10;;
11247;SDS011;5681;53.316;13.950;2023-06-10T06:15:06;10.55;;;4.10;;
11247;SDS011;5681;53.316;13.950;2023-06-10T06:17:34;7.93;;;3.67;;
11247;SDS011;5681;53.316;13.950;2023-06-10T06:20:00;8.95;;;3.92;;
11247;SDS011;5681;53.316;13.950;2023-06-10T06:22:27;8.40;;;3.45;;
11247;SDS011;5681;53.316;13.950;2023-06-10T06:24:53;9.95;;;3.90;;
11247;SDS011;5681;53.316;13.950;2023-06-10T06:27:19;9.27;;;4.43;;
11247;SDS011;5681;53.316;13.950;2023-06-10T06:29:47;7.68;;;4.18;;
11247;SDS011;5681;53.316;13.950;2023-06-10T06:32:13;8.90;;;4.38;;
11247;SDS011;5681;53.316;13.950;2023-06-10T06:34:40;11.52;;;4.22;;
11247;SDS011;5681;53.316;13.950;2023-06-10T06:37:06;12.70;;;4.28;;
11247;SDS011;5681;53.316;13.950;2023-06-10T06:39:32;11.82;;;4.57;;
11247;SDS011;5681;53.316;13.950;2023-06-10T06:41:59;6.00;;;3.90;;
11247;SDS011;5681;53.316;13.950;2023-06-10T06:44:25;9.63;;;4.47;;
11247;SDS011;5681;53.316;13.950;2023-06-10T06:46:53;12.43;;;4.10;;
11247;SDS011;5681;53.316;13.950;2023-06-10T06:49:19;9.65;;;4.50;;
11247;SDS011;5681;53.316;13.950;2023-06-10T06:51:45;9.60;;;4.47;;
11247;SDS011;5681;53.316;13.950;2023-06-10T06:54:12;9.88;;;4.50;;
11247;SDS011;5681;53.316;13.950;2023-06-10T06:56:38;10.93;;;4.40;;
11247;SDS011;5681;53.316;13.950;2023-06-10T06:59:05;7.85;;;4.25;;
11247;SDS011;5681;53.316;13.950;2023-06-10T07:01:32;8.82;;;3.97;;
11247;SDS011;5681;53.316;13.950;2023-06-10T07:04:00;6.57;;;4.07;;
11247;SDS011;5681;53.316;13.950;2023-06-10T07:06:27;9.02;;;4.43;;
11247;SDS011;5681;53.316;13.950;2023-06-10T07:08:53;8.60;;;4.28;;
11247;SDS011;5681;53.316;13.950;2023-06-10T07:11:19;7.72;;;4.20;;
11247;SDS011;5681;53.316;13.950;2023-06-10T07:13:47;8.68;;;4.95;;
11247;SDS011;5681;53.316;13.950;2023-06-10T07:16:13;14.32;;;4.20;;
11247;SDS011;5681;53.316;13.950;2023-06-10T07:18:39;10.60;;;4.30;;
11247;SDS011;5681;53.316;13.950;2023-06-10T07:21:07;8.30;;;4.20;;
11247;SDS011;5681;53.316;13.950;2023-06-10T07:23:33;8.90;;;4.32;;
11247;SDS011;5681;53.316;13.950;2023-06-10T07:26:00;6.75;;;4.15;;
11247;SDS011;5681;53.316;13.950;2023-06-10T07:28:26;7.10;;;3.92;;
11247;SDS011;5681;53.316;13.950;2023-06-10T07:30:52;9.57;;;4.15;;
11247;SDS011;5681;53.316;13.950;2023-06-10T07:33:19;9.10;;;4.28;;
11247;SDS011;5681;53.316;13.950;2023-06-10T07:35:45;10.65;;;4.38;;
11247;SDS011;5681;53.316;13.950;2023-06-10T07:38:13;8.68;;;4.28;;
11247;SDS011;5681;53.316;13.950;2023-06-10T07:40:40;11.68;;;4.40;;
11247;SDS011;5681;53.316;13.950;2023-06-10T07:43:06;9.77;;;4.43;;
11247;SDS011;5681;53.316;13.950;2023-06-10T07:45:32;13.23;;;4.65;;
11247;SDS011;5681;53.316;13.950;2023-06-10T07:47:58;8.63;;;4.20;;
11247;SDS011;5681;53.316;13.950;2023-06-10T07:50:25;8.23;;;4.25;;
11247;SDS011;5681;53.316;13.950;2023-06-10T07:52:51;8.52;;;4.22;;
11247;SDS011;5681;53.316;13.950;2023-06-10T07:55:19;9.45;;;4.32;;
11247;SDS011;5681;53.316;13.950;2023-06-10T07:57:45;10.63;;;4.32;;
11247;SDS011;5681;53.316;13.950;2023-06-10T08:00:12;9.20;;;4.43;;
11247;SDS011;5681;53.316;13.950;2023-06-10T08:02:38;8.00;;;4.30;;
11247;SDS011;5681;53.316;13.950;2023-06-10T08:05:05;6.78;;;4.85;;
11247;SDS011;5681;53.316;13.950;2023-06-10T08:07:32;9.35;;;4.45;;
11247;SDS011;5681;53.316;13.950;2023-06-10T08:09:58;14.60;;;4.15;;
11247;SDS011;5681;53.316;13.950;2023-06-10T08:12:26;5.72;;;4.20;;
11247;SDS011;5681;53.316;13.950;2023-06-10T08:14:52;11.10;;;4.60;;
11247;SDS011;5681;53.316;13.950;2023-06-10T08:17:19;8.15;;;4.60;;
11247;SDS011;5681;53.316;13.950;2023-06-10T08:19:46;8.15;;;4.60;;
11247;SDS011;5681;53.316;13.950;2023-06-10T08:22:12;9.32;;;4.53;;
11247;SDS011;5681;53.316;13.950;2023-06-10T08:24:39;11.77;;;4.90;;
11247;SDS011;5681;53.316;13.950;2023-06-10T08:27:06;9.40;;;4.45;;
11247;SDS011;5681;53.316;13.950;2023-06-10T08:29:33;21.27;;;5.32;;
11247;SDS011;5681;53.316;13.950;2023-06-10T08:32:00;6.53;;;4.28;;
11247;SDS011;5681;53.316;13.950;2023-06-10T08:34:26;8.32;;;4.45;;
11247;SDS011;5681;53.316;13.950;2023-06-10T08:36:52;8.13;;;4.03;;
11247;SDS011;5681;53.316;13.950;2023-06-10T08:39:20;7.07;;;4.32;;
11247;SDS011;5681;53.316;13.950;2023-06-10T08:41:49;6.78;;;4.05;;
11247;SDS011;5681;53.316;13.950;2023-06-10T08:44:21;5.68;;;4.05;;
11247;SDS011;5681;53.316;13.950;2023-06-10T08:46:52;7.20;;;4.20;;
11247;SDS011;5681;53.316;13.950;2023-06-10T08:49:18;9.10;;;4.32;;
11247;SDS011;5681;53.316;13.950;2023-06-10T08:51:47;7.25;;;4.25;;
11247;SDS011;5681;53.316;13.950;2023-06-10T08:54:15;7.88;;;3.92;;
11247;SDS011;5681;53.316;13.950;2023-06-10T08:56:44;11.23;;;4.10;;
11247;SDS011;5681;53.316;13.950;2023-06-10T08:59:13;8.63;;;4.40;;
11247;SDS011;5681;53.316;13.950;2023-06-10T09:01:41;5.80;;;3.75;;
11247;SDS011;5681;53.316;13.950;2023-06-10T09:04:09;6.65;;;4.03;;
11247;SDS011;5681;53.316;13.950;2023-06-10T09:06:36;8.52;;;4.15;;
11247;SDS011;5681;53.316;13.950;2023-06-10T09:09:03;8.60;;;3.65;;
11247;SDS011;5681;53.316;13.950;2023-06-10T09:11:30;5.68;;;3.90;;
11247;SDS011;5681;53.316;13.950;2023-06-10T09:13:57;9.63;;;4.20;;
11247;SDS011;5681;53.316;13.950;2023-06-10T09:16:24;11.68;;;5.47;;
11247;SDS011;5681;53.316;13.950;2023-06-10T09:18:50;7.30;;;3.90;;
11247;SDS011;5681;53.316;13.950;2023-06-10T09:21:21;8.35;;;4.07;;
11247;SDS011;5681;53.316;13.950;2023-06-10T09:23:48;6.63;;;3.83;;
11247;SDS011;5681;53.316;13.950;2023-06-10T09:26:14;8.15;;;4.57;;
11247;SDS011;5681;53.316;13.950;2023-06-10T09:28:41;11.73;;;4.00;;
11247;SDS011;5681;53.316;13.950;2023-06-10T09:31:08;10.02;;;4.25;;
11247;SDS011;5681;53.316;13.950;2023-06-10T09:33:37;13.45;;;5.20;;
11247;SDS011;5681;53.316;13.950;2023-06-10T09:36:04;7.50;;;4.00;;
11247;SDS011;5681;53.316;13.950;2023-06-10T09:38:32;7.75;;;3.90;;
11247;SDS011;5681;53.316;13.950;2023-06-10T09:40:59;7.93;;;4.50;;
11247;SDS011;5681;53.316;13.950;2023-06-10T09:43:38;6.80;;;4.22;;
11247;SDS011;5681;53.316;13.950;2023-06-10T09:46:05;10.50;;;4.20;;
11247;SDS011;5681;53.316;13.950;2023-06-10T09:48:34;8.27;;;4.38;;
11247;SDS011;5681;53.316;13.950;2023-06-10T09:51:01;8.55;;;4.43;;
11247;SDS011;5681;53.316;13.950;2023-06-10T09:53:27;7.38;;;4.40;;
11247;SDS011;5681;53.316;13.950;2023-06-10T09:55:57;5.65;;;4.20;;
11247;SDS011;5681;53.316;13.950;2023-06-10T09:58:33;5.35;;;4.63;;
11247;SDS011;5681;53.316;13.950;2023-06-10T10:01:00;5.75;;;4.13;;
11247;SDS011;5681;53.316;13.950;2023-06-10T10:03:30;7.50;;;4.55;;
11247;SDS011;5681;53.316;13.950;2023-06-10T10:05:57;10.00;;;4.25;;
11247;SDS011;5681;53.316;13.950;2023-06-10T10:08:25;8.45;;;4.22;;
11247;SDS011;5681;53.316;13.950;2023-06-10T10:10:51;8.43;;;4.45;;
11247;SDS011;5681;53.316;13.950;2023-06-10T10:13:19;5.00;;;3.90;;
11247;SDS011;5681;53.316;13.950;2023-06-10T10:15:46;7.65;;;4.00;;
11247;SDS011;5681;53.316;13.950;2023-06-10T10:18:14;7.38;;;4.35;;
11247;SDS011;5681;53.316;13.950;2023-06-10T10:20:42;4.90;;;3.85;;
11247;SDS011;5681;53.316;13.950;2023-06-10T10:23:13;7.05;;;4.35;;
11247;SDS011;5681;53.316;13.950;2023-06-10T10:25:40;7.72;;;4.03;;
11247;SDS011;5681;53.316;13.950;2023-06-10T10:28:09;6.45;;;3.75;;
11247;SDS011;5681;53.316;13.950;2023-06-10T10:30:39;8.63;;;4.32;;
11247;SDS011;5681;53.316;13.950;2023-06-10T10:33:08;6.47;;;4.10;;
11247;SDS011;5681;53.316;13.950;2023-06-10T10:35:36;5.82;;;4.15;;
11247;SDS011;5681;53.316;13.950;2023-06-10T10:38:02;5.53;;;3.90;;
11247;SDS011;5681;53.316;13.950;2023-06-10T10:40:29;6.53;;;4.10;;
11247;SDS011;5681;53.316;13.950;2023-06-10T10:42:57;7.70;;;3.92;;
11247;SDS011;5681;53.316;13.950;2023-06-10T10:45:24;4.93;;;4.20;;
11247;SDS011;5681;53.316;13.950;2023-06-10T10:47:54;7.57;;;3.85;;
11247;SDS011;5681;53.316;13.950;2023-06-10T10:50:22;6.25;;;3.97;;
11247;SDS011;5681;53.316;13.950;2023-06-10T10:52:53;5.15;;;3.58;;
11247;SDS011;5681;53.316;13.950;2023-06-10T10:55:20;5.93;;;3.72;;
11247;SDS011;5681;53.316;13.950;2023-06-10T10:57:53;6.90;;;3.58;;
11247;SDS011;5681;53.316;13.950;2023-06-10T11:00:24;9.15;;;4.13;;
11247;SDS011;5681;53.316;13.950;2023-06-10T11:02:52;7.22;;;3.80;;
11247;SDS011;5681;53.316;13.950;2023-06-10T11:05:30;9.57;;;4.72;;
11247;SDS011;5681;53.316;13.950;2023-06-10T11:07:57;7.75;;;3.33;;
11247;SDS011;5681;53.316;13.950;2023-06-10T11:10:28;5.05;;;3.60;;
11247;SDS011;5681;53.316;13.950;2023-06-10T11:12:55;4.20;;;3.42;;
11247;SDS011;5681;53.316;13.950;2023-06-10T11:15:23;4.13;;;3.40;;
11247;SDS011;5681;53.316;13.950;2023-06-10T11:20:44;7.82;;;3.42;;
11247;SDS011;5681;53.316;13.950;2023-06-10T11:26:14;5.38;;;3.65;;
11247;SDS011;5681;53.316;13.950;2023-06-10T11:28:42;6.05;;;3.40;;
11247;SDS011;5681;53.316;13.950;2023-06-10T11:31:27;8.65;;;3.55;;
11247;SDS011;5681;53.316;13.950;2023-06-10T11:33:55;5.18;;;3.53;;
11247;SDS011;5681;53.316;13.950;2023-06-10T11:36:24;5.00;;;3.65;;
11247;SDS011;5681;53.316;13.950;2023-06-10T11:38:53;8.70;;;3.83;;
11247;SDS011;5681;53.316;13.950;2023-06-10T11:41:21;8.10;;;3.70;;
11247;SDS011;5681;53.316;13.950;2023-06-10T11:43:47;5.28;;;3.70;;
11247;SDS011;5681;53.316;13.950;2023-06-10T11:46:14;7.38;;;3.63;;
11247;SDS011;5681;53.316;13.950;2023-06-10T11:48:47;6.43;;;3.45;;
11247;SDS011;5681;53.316;13.950;2023-06-10T11:51:14;7.97;;;3.38;;
11247;SDS011;5681;53.316;13.950;2023-06-10T11:53:44;4.65;;;3.50;;
11247;SDS011;5681;53.316;13.950;2023-06-10T11:56:10;4.85;;;3.17;;
11247;SDS011;5681;53.316;13.950;2023-06-10T11:58:37;3.67;;;3.30;;
11247;SDS011;5681;53.316;13.950;2023-06-10T12:01:05;6.22;;;3.13;;
11247;SDS011;5681;53.316;13.950;2023-06-10T12:03:35;3.65;;;3.15;;
11247;SDS011;5681;53.316;13.950;2023-06-10T12:06:03;3.58;;;3.05;;
11247;SDS011;5681;53.316;13.950;2023-06-10T12:08:30;17.67;;;3.65;;
11247;SDS011;5681;53.316;13.950;2023-06-10T12:10:58;5.40;;;3.47;;
11247;SDS011;5681;53.316;13.950;2023-06-10T12:13:25;7.97;;;3.10;;
11247;SDS011;5681;53.316;13.950;2023-06-10T12:15:52;3.40;;;3.08;;
11247;SDS011;5681;53.316;13.950;2023-06-10T12:18:19;4.15;;;3.25;;
11247;SDS011;5681;53.316;13.950;2023-06-10T12:20:46;4.47;;;3.72;;
11247;SDS011;5681;53.316;13.950;2023-06-10T12:23:13;4.50;;;3.05;;
11247;SDS011;5681;53.316;13.950;2023-06-10T12:25:49;8.48;;;3.28;;
11247;SDS011;5681;53.316;13.950;2023-06-10T12:28:17;5.40;;;3.03;;
11247;SDS011;5681;53.316;13.950;2023-06-10T12:30:47;3.30;;;2.92;;
11247;SDS011;5681;53.316;13.950;2023-06-10T12:33:16;3.45;;;3.15;;
11247;SDS011;5681;53.316;13.950;2023-06-10T12:35:46;3.17;;;2.90;;
11247;SDS011;5681;53.316;13.950;2023-06-10T12:38:13;3.47;;;2.83;;
11247;SDS011;5681;53.316;13.950;2023-06-10T12:40:40;4.18;;;2.45;;
11247;SDS011;5681;53.316;13.950;2023-06-10T12:43:06;4.80;;;3.17;;
11247;SDS011;5681;53.316;13.950;2023-06-10T12:45:35;4.25;;;3.17;;
11247;SDS011;5681;53.316;13.950;2023-06-10T12:48:04;4.20;;;2.67;;
11247;SDS011;5681;53.316;13.950;2023-06-10T12:50:32;6.50;;;2.90;;
11247;SDS011;5681;53.316;13.950;2023-06-10T12:52:59;9.10;;;3.00;;
11247;SDS011;5681;53.316;13.950;2023-06-10T12:55:25;6.10;;;3.22;;
11247;SDS011;5681;53.316;13.950;2023-06-10T12:57:51;6.75;;;3.13;;
11247;SDS011;5681;53.316;13.950;2023-06-10T13:00:18;3.78;;;3.00;;
11247;SDS011;5681;53.316;13.950;2023-06-10T13:02:47;3.40;;;2.78;;
11247;SDS011;5681;53.316;13.950;2023-06-10T13:05:14;6.18;;;2.97;;
11247;SDS011;5681;53.316;13.950;2023-06-10T13:07:41;5.22;;;2.83;;
11247;SDS011;5681;53.316;13.950;2023-06-10T13:10:08;7.93;;;3.08;;
11247;SDS011;5681;53.316;13.950;2023-06-10T13:12:35;4.57;;;2.92;;
11247;SDS011;5681;53.316;13.950;2023-06-10T13:15:02;5.72;;;3.17;;
11247;SDS011;5681;53.316;13.950;2023-06-10T13:17:30;9.55;;;3.40;;
11247;SDS011;5681;53.316;13.950;2023-06-10T13:19:57;11.20;;;3.70;;
11247;SDS011;5681;53.316;13.950;2023-06-10T13:22:24;9.02;;;3.47;;
11247;SDS011;5681;53.316;13.950;2023-06-10T13:24:51;15.00;;;3.30;;
11247;SDS011;5681;53.316;13.950;2023-06-10T13:27:18;22.33;;;3.95;;
11247;SDS011;5681;53.316;13.950;2023-06-10T13:29:44;16.20;;;3.72;;
11247;SDS011;5681;53.316;13.950;2023-06-10T13:32:10;12.32;;;3.85;;
11247;SDS011;5681;53.316;13.950;2023-06-10T13:34:37;19.63;;;5.40;;
11247;SDS011;5681;53.316;13.950;2023-06-10T13:37:05;15.10;;;4.80;;
11247;SDS011;5681;53.316;13.950;2023-06-10T13:39:31;7.63;;;3.60;;
11247;SDS011;5681;53.316;13.950;2023-06-10T13:41:58;9.68;;;3.58;;
11247;SDS011;5681;53.316;13.950;2023-06-10T13:44:24;8.15;;;3.50;;
11247;SDS011;5681;53.316;13.950;2023-06-10T13:46:50;7.00;;;2.90;;
11247;SDS011;5681;53.316;13.950;2023-06-10T13:49:17;3.53;;;3.15;;
11247;SDS011;5681;53.316;13.950;2023-06-10T13:51:43;9.73;;;3.80;;
11247;SDS011;5681;53.316;13.950;2023-06-10T13:54:11;6.60;;;3.78;;
11247;SDS011;5681;53.316;13.950;2023-06-10T13:56:39;5.18;;;3.42;;
11247;SDS011;5681;53.316;13.950;2023-06-10T13:59:05;6.50;;;3.88;;
11247;SDS011;5681;53.316;13.950;2023-06-10T14:01:32;5.57;;;3.80;;
11247;SDS011;5681;53.316;13.950;2023-06-10T14:03:59;5.50;;;3.25;;
11247;SDS011;5681;53.316;13.950;2023-06-10T14:06:25;5.53;;;3.30;;
11247;SDS011;5681;53.316;13.950;2023-06-10T14:08:52;5.32;;;3.80;;
11247;SDS011;5681;53.316;13.950;2023-06-10T14:11:20;7.32;;;3.85;;
11247;SDS011;5681;53.316;13.950;2023-06-10T14:13:47;3.75;;;3.05;;
11247;SDS011;5681;53.316;13.950;2023-06-10T14:16:13;5.80;;;3.05;;
11247;SDS011;5681;53.316;13.950;2023-06-10T14:18:39;4.47;;;3.47;;
11247;SDS011;5681;53.316;13.950;2023-06-10T14:21:06;3.88;;;3.25;;
11247;SDS011;5681;53.316;13.950;2023-06-10T14:23:32;4.38;;;3.05;;
11247;SDS011;5681;53.316;13.950;2023-06-10T14:25:58;3.75;;;3.15;;
11247;SDS011;5681;53.316;13.950;2023-06-10T14:28:27;6.10;;;3.53;;
11247;SDS011;5681;53.316;13.950;2023-06-10T14:30:54;4.55;;;3.25;;
11247;SDS011;5681;53.316;13.950;2023-06-10T14:33:20;5.72;;;3.10;;
11247;SDS011;5681;53.316;13.950;2023-06-10T14:35:46;9.02;;;3.30;;
11247;SDS011;5681;53.316;13.950;2023-06-10T14:38:13;7.85;;;2.70;;
11247;SDS011;5681;53.316;13.950;2023-06-10T14:40:39;5.22;;;3.20;;
11247;SDS011;5681;53.316;13.950;2023-06-10T14:43:05;10.23;;;3.00;;
11247;SDS011;5681;53.316;13.950;2023-06-10T14:45:36;9.20;;;3.35;;
11247;SDS011;5681;53.316;13.950;2023-06-10T14:48:02;8.40;;;3.47;;
11247;SDS011;5681;53.316;13.950;2023-06-10T14:50:29;9.05;;;3.00;;